TimeCDT,TemperatureF,Dew PointF,Humidity,Sea Level PressureIn,VisibilityMPH,Wind Direction,Wind SpeedMPH,Gust SpeedMPH,PrecipitationIn,Events,Conditions,WindDirDegrees,DateUTC
12:15 AM,75.4,74.1,96,29.99,10.0,ESE,5.8,-,N/A,,Clear,110,2013-10-02 05:15:00
12:35 AM,75.4,73.9,95,29.98,10.0,ESE,6.9,-,N/A,,Clear,110,2013-10-02 05:35:00
12:55 AM,75.6,74.3,96,29.98,10.0,East,9.2,-,N/A,,Clear,100,2013-10-02 05:55:00
1:15 AM,75.6,74.3,96,29.98,10.0,East,6.9,-,N/A,,Clear,100,2013-10-02 06:15:00
1:35 AM,75.6,74.3,96,29.98,10.0,East,5.8,-,N/A,,Clear,100,2013-10-02 06:35:00
1:55 AM,75.7,74.3,95,29.98,10.0,East,6.9,-,N/A,,Clear,90,2013-10-02 06:55:00
2:15 AM,75.6,74.3,96,29.98,10.0,East,5.8,-,N/A,,Clear,90,2013-10-02 07:15:00
2:35 AM,75.2,73.9,96,29.98,10.0,East,4.6,-,N/A,,Clear,80,2013-10-02 07:35:00
2:55 AM,74.8,73.9,97,29.97,10.0,East,3.5,-,N/A,,Clear,90,2013-10-02 07:55:00
3:15 AM,74.8,73.9,97,29.97,10.0,ENE,3.5,-,N/A,,Clear,70,2013-10-02 08:15:00
3:35 AM,75.2,74.3,97,29.97,10.0,East,4.6,-,N/A,,Clear,80,2013-10-02 08:35:00
3:55 AM,74.8,74.3,98,29.96,10.0,ENE,4.6,-,N/A,,Clear,70,2013-10-02 08:55:00
4:15 AM,74.7,73.9,98,29.97,7.0,ENE,3.5,-,N/A,,Clear,70,2013-10-02 09:15:00
4:35 AM,74.5,73.8,98,29.97,7.0,East,4.6,-,N/A,,Clear,80,2013-10-02 09:35:00
4:55 AM,74.5,73.8,98,29.97,7.0,ENE,4.6,-,N/A,,Clear,70,2013-10-02 09:55:00
5:15 AM,74.5,73.9,98,29.97,7.0,ENE,6.9,-,N/A,,Clear,70,2013-10-02 10:15:00
5:35 AM,74.5,73.9,98,29.97,10.0,ENE,8.1,-,N/A,,Clear,70,2013-10-02 10:35:00
5:55 AM,74.3,73.6,98,29.98,10.0,ENE,6.9,-,N/A,,Clear,70,2013-10-02 10:55:00
6:15 AM,74.3,73.6,98,29.98,10.0,ENE,6.9,-,N/A,,Clear,70,2013-10-02 11:15:00
6:35 AM,74.3,73.4,97,29.98,10.0,ENE,5.8,-,N/A,,Clear,60,2013-10-02 11:35:00
6:55 AM,74.3,73.6,98,29.99,10.0,ENE,5.8,-,N/A,,Clear,70,2013-10-02 11:55:00
7:15 AM,74.3,73.4,97,29.99,10.0,NE,5.8,-,N/A,,Clear,50,2013-10-02 12:15:00
7:35 AM,74.5,73.8,98,30.00,7.0,ENE,6.9,-,N/A,,Scattered Clouds,70,2013-10-02 12:35:00
7:55 AM,74.8,74.3,98,30.00,4.0,ENE,6.9,-,N/A,,Overcast,70,2013-10-02 12:55:00
8:15 AM,75.2,74.5,98,30.01,2.5,ENE,8.1,-,N/A,,Overcast,60,2013-10-02 13:15:00
8:35 AM,75.7,75.0,98,30.01,4.0,ENE,8.1,-,N/A,,Overcast,70,2013-10-02 13:35:00
8:55 AM,77.7,75.2,92,30.01,10.0,ENE,11.5,-,N/A,,Scattered Clouds,70,2013-10-02 13:55:00
9:15 AM,79.0,75.2,88,30.01,10.0,East,9.2,-,N/A,,Scattered Clouds,90,2013-10-02 14:15:00
9:35 AM,80.2,75.6,86,30.02,10.0,East,8.1,-,N/A,,Clear,90,2013-10-02 14:35:00
9:55 AM,81.3,75.7,83,30.02,10.0,ESE,9.2,-,N/A,,Clear,110,2013-10-02 14:55:00
10:15 AM,82.0,75.7,81,30.02,10.0,ESE,8.1,-,N/A,,Clear,110,2013-10-02 15:15:00
10:35 AM,82.8,75.7,79,30.03,10.0,ESE,10.4,-,N/A,,Clear,110,2013-10-02 15:35:00
10:55 AM,82.8,75.7,79,30.03,10.0,ESE,9.2,-,N/A,,Scattered Clouds,110,2013-10-02 15:55:00
11:15 AM,85.3,75.4,72,30.03,10.0,ESE,11.5,-,N/A,,Mostly Cloudy,120,2013-10-02 16:15:00
11:35 AM,86.2,75.0,69,30.02,10.0,SE,15.0,-,N/A,,Scattered Clouds,140,2013-10-02 16:35:00
11:55 AM,85.8,73.8,67,30.01,10.0,SE,9.2,-,N/A,,Scattered Clouds,130,2013-10-02 16:55:00
12:15 PM,85.6,73.8,67,30.01,10.0,SE,10.4,-,N/A,,Scattered Clouds,140,2013-10-02 17:15:00
12:35 PM,86.4,72.9,64,30.00,10.0,South,8.1,-,N/A,,Scattered Clouds,170,2013-10-02 17:35:00
12:55 PM,86.9,72.0,61,29.99,10.0,SSE,9.2,-,N/A,,Clear,160,2013-10-02 17:55:00
1:15 PM,87.4,71.8,60,29.98,10.0,SSE,8.1,-,N/A,,Clear,160,2013-10-02 18:15:00
1:35 PM,87.3,71.2,59,29.96,10.0,SE,5.8,-,N/A,,Clear,130,2013-10-02 18:35:00
1:55 PM,87.8,71.2,58,29.96,10.0,SSE,9.2,-,N/A,,Clear,150,2013-10-02 18:55:00
2:15 PM,88.5,73.0,60,29.95,10.0,SSE,10.4,-,N/A,,Clear,160,2013-10-02 19:15:00
2:35 PM,88.0,72.7,60,29.95,10.0,SSE,10.4,-,N/A,,Clear,160,2013-10-02 19:35:00
2:55 PM,88.0,73.2,61,29.95,10.0,South,10.4,-,N/A,,Clear,170,2013-10-02 19:55:00
3:15 PM,87.4,72.9,62,29.95,10.0,SSE,12.7,-,N/A,,Clear,160,2013-10-02 20:15:00
3:35 PM,87.4,72.1,60,29.95,10.0,SE,12.7,-,N/A,,Scattered Clouds,140,2013-10-02 20:35:00
3:55 PM,87.6,72.7,61,29.94,10.0,SSE,9.2,16.1,N/A,,Scattered Clouds,150,2013-10-02 20:55:00
4:15 PM,87.3,73.0,62,29.94,10.0,SE,10.4,-,N/A,,Scattered Clouds,140,2013-10-02 21:15:00
4:35 PM,86.0,73.0,65,29.94,10.0,ESE,8.1,-,N/A,,Scattered Clouds,110,2013-10-02 21:35:00
4:55 PM,86.2,72.7,64,29.94,10.0,SSE,11.5,-,N/A,,Clear,150,2013-10-02 21:55:00
5:15 PM,84.4,72.5,67,29.94,10.0,ESE,15.0,20.7,N/A,,Mostly Cloudy,110,2013-10-02 22:15:00
5:35 PM,83.7,71.8,67,29.95,10.0,SE,8.1,-,N/A,,Scattered Clouds,140,2013-10-02 22:35:00
5:55 PM,82.4,72.5,72,29.94,10.0,East,9.2,-,N/A,,Clear,100,2013-10-02 22:55:00
6:15 PM,80.6,72.5,76,29.94,10.0,East,3.5,-,N/A,,Clear,100,2013-10-02 23:15:00
6:35 PM,79.7,72.1,78,29.94,10.0,ESE,3.5,-,N/A,,Clear,110,2013-10-02 23:35:00
6:55 PM,79.7,72.0,77,29.94,10.0,ESE,3.5,-,N/A,,Clear,110,2013-10-02 23:55:00
7:15 PM,77.9,72.5,83,29.94,10.0,Calm,Calm,-,N/A,,Clear,0,2013-10-03 00:15:00
7:35 PM,77.2,72.7,86,29.95,10.0,Calm,Calm,-,N/A,,Clear,0,2013-10-03 00:35:00
7:55 PM,77.5,73.4,87,29.95,10.0,Calm,Calm,-,N/A,,Clear,0,2013-10-03 00:55:00
8:15 PM,77.0,73.6,89,29.96,10.0,Calm,Calm,-,N/A,,Clear,0,2013-10-03 01:15:00
8:35 PM,76.6,73.6,90,29.97,10.0,Calm,Calm,-,N/A,,Clear,0,2013-10-03 01:35:00
8:55 PM,77.2,74.7,92,29.98,10.0,Calm,Calm,-,N/A,,Clear,0,2013-10-03 01:55:00
9:15 PM,78.1,75.2,91,29.98,10.0,SE,4.6,-,N/A,,Clear,130,2013-10-03 02:15:00
9:35 PM,78.3,75.0,90,29.98,10.0,ESE,3.5,-,N/A,,Clear,120,2013-10-03 02:35:00
9:55 PM,78.1,74.5,89,29.98,10.0,ESE,3.5,-,N/A,,Clear,110,2013-10-03 02:55:00
10:15 PM,77.4,74.3,90,29.98,10.0,ESE,4.6,-,N/A,,Clear,120,2013-10-03 03:15:00
10:35 PM,78.1,74.3,88,29.98,10.0,ESE,4.6,-,N/A,,Clear,110,2013-10-03 03:35:00
10:55 PM,77.9,74.5,89,29.98,10.0,ESE,3.5,-,N/A,,Clear,110,2013-10-03 03:55:00
11:15 PM,77.2,74.5,91,29.98,10.0,East,4.6,-,N/A,,Clear,100,2013-10-03 04:15:00
11:35 PM,77.2,74.5,91,29.98,10.0,ESE,4.6,-,N/A,,Clear,110,2013-10-03 04:35:00
11:55 PM,77.2,74.5,91,29.98,10.0,East,5.8,-,N/A,,Clear,100,2013-10-03 04:55:00